sensor_id;sensor_type;location;lat;lon;timestamp;P1;durP1;ratioP1;P2;durP2;ratioP2
81725;SDS011;71135;16.738;-14.648;2023-11-21T00:00:19;27.38;;;9.90;;
81725;SDS011;71135;16.738;-14.648;2023-11-21T00:02:48;30.73;;;10.45;;
81725;SDS011;71135;16.738;-14.648;2023-11-21T00:05:17;30.60;;;10.82;;
81725;SDS011;71135;16.738;-14.648;2023-11-21T00:07:51;28.02;;;10.90;;
81725;SDS011;71135;16.738;-14.648;2023-11-21T00:10:20;26.70;;;12.32;;
81725;SDS011;71135;16.738;-14.648;2023-11-21T00:12:50;36.42;;;13.10;;
81725;SDS011;71135;16.738;-14.648;2023-11-21T00:15:20;33.13;;;11.98;;
81725;SDS011;71135;16.738;-14.648;2023-11-21T00:17:50;33.13;;;11.85;;
81725;SDS011;71135;16.738;-14.648;2023-11-21T00:20:22;38.28;;;12.00;;
81725;SDS011;71135;16.738;-14.648;2023-11-21T00:22:53;36.35;;;12.38;;
81725;SDS011;71135;16.738;-14.648;2023-11-21T00:25:23;28.40;;;12.48;;
81725;SDS011;71135;16.738;-14.648;2023-11-21T00:27:52;32.40;;;12.05;;
81725;SDS011;71135;16.738;-14.648;2023-11-21T00:30:21;31.17;;;12.55;;
81725;SDS011;71135;16.738;-14.648;2023-11-21T00:32:50;27.10;;;11.07;;
81725;SDS011;71135;16.738;-14.648;2023-11-21T00:35:20;27.27;;;12.48;;
81725;SDS011;71135;16.738;-14.648;2023-11-21T00:37:49;33.65;;;12.80;;
81725;SDS011;71135;16.738;-14.648;2023-11-21T00:40:20;31.23;;;11.27;;
81725;SDS011;71135;16.738;-14.648;2023-11-21T00:42:50;28.90;;;11.40;;
81725;SDS011;71135;16.738;-14.648;2023-11-21T00:45:19;28.27;;;11.48;;
81725;SDS011;71135;16.738;-14.648;2023-11-21T00:47:48;29.98;;;11.77;;
81725;SDS011;71135;16.738;-14.648;2023-11-21T00:50:18;26.08;;;10.98;;
81725;SDS011;71135;16.738;-14.648;2023-11-21T00:52:47;28.75;;;12.38;;
81725;SDS011;71135;16.738;-14.648;2023-11-21T00:55:17;30.75;;;10.90;;
81725;SDS011;71135;16.738;-14.648;2023-11-21T00:57:49;27.67;;;11.25;;
81725;SDS011;71135;16.738;-14.648;2023-11-21T01:00:18;29.50;;;10.85;;
81725;SDS011;71135;16.738;-14.648;2023-11-21T01:02:49;30.67;;;10.57;;
81725;SDS011;71135;16.738;-14.648;2023-11-21T01:05:18;24.00;;;9.88;;
81725;SDS011;71135;16.738;-14.648;2023-11-21T01:07:53;25.08;;;10.13;;
81725;SDS011;71135;16.738;-14.648;2023-11-21T01:10:25;22.40;;;9.43;;
81725;SDS011;71135;16.738;-14.648;2023-11-21T01:12:56;21.50;;;9.23;;
81725;SDS011;71135;16.738;-14.648;2023-11-21T01:18:29;25.95;;;8.95;;
81725;SDS011;71135;16.738;-14.648;2023-11-21T01:24:11;24.75;;;8.55;;
81725;SDS011;71135;16.738;-14.648;2023-11-21T01:29:32;21.38;;;9.25;;
81725;SDS011;71135;16.738;-14.648;2023-11-21T01:35:19;23.77;;;8.20;;
81725;SDS011;71135;16.738;-14.648;2023-11-21T01:37:48;26.83;;;9.52;;
81725;SDS011;71135;16.738;-14.648;2023-11-21T01:40:17;21.05;;;9.07;;
81725;SDS011;71135;16.738;-14.648;2023-11-21T01:42:46;24.25;;;8.60;;
81725;SDS011;71135;16.738;-14.648;2023-11-21T01:45:18;23.55;;;8.82;;
81725;SDS011;71135;16.738;-14.648;2023-11-21T01:47:47;19.77;;;8.13;;
81725;SDS011;71135;16.738;-14.648;2023-11-21T01:50:17;28.25;;;8.68;;
81725;SDS011;71135;16.738;-14.648;2023-11-21T01:52:48;24.33;;;8.73;;
81725;SDS011;71135;16.738;-14.648;2023-11-21T01:55:17;29.48;;;8.65;;
81725;SDS011;71135;16.738;-14.648;2023-11-21T01:57:47;22.83;;;8.80;;
81725;SDS011;71135;16.738;-14.648;2023-11-21T02:00:19;24.48;;;8.77;;
81725;SDS011;71135;16.738;-14.648;2023-11-21T02:02:49;23.88;;;8.70;;
81725;SDS011;71135;16.738;-14.648;2023-11-21T02:05:19;22.55;;;9.05;;
81725;SDS011;71135;16.738;-14.648;2023-11-21T02:07:48;26.17;;;8.52;;
81725;SDS011;71135;16.738;-14.648;2023-11-21T02:10:18;20.80;;;8.25;;
81725;SDS011;71135;16.738;-14.648;2023-11-21T02:12:48;21.15;;;8.07;;
81725;SDS011;71135;16.738;-14.648;2023-11-21T02:15:21;17.60;;;8.30;;
81725;SDS011;71135;16.738;-14.648;2023-11-21T02:17:54;20.02;;;7.80;;
81725;SDS011;71135;16.738;-14.648;2023-11-21T02:20:24;20.35;;;7.95;;
81725;SDS011;71135;16.738;-14.648;2023-11-21T02:22:57;17.60;;;8.57;;
81725;SDS011;71135;16.738;-14.648;2023-11-21T02:25:27;26.55;;;7.80;;
81725;SDS011;71135;16.738;-14.648;2023-11-21T02:31:30;24.45;;;7.10;;
81725;SDS011;71135;16.738;-14.648;2023-11-21T02:36:46;26.30;;;8.13;;
81725;SDS011;71135;16.738;-14.648;2023-11-21T02:39:19;20.05;;;8.77;;
81725;SDS011;71135;16.738;-14.648;2023-11-21T02:41:50;20.60;;;7.47;;
81725;SDS011;71135;16.738;-14.648;2023-11-21T02:44:19;22.52;;;7.47;;
81725;SDS011;71135;16.738;-14.648;2023-11-21T02:46:48;15.23;;;6.95;;
81725;SDS011;71135;16.738;-14.648;2023-11-21T02:49:17;18.13;;;7.50;;
81725;SDS011;71135;16.738;-14.648;2023-11-21T02:51:46;25.52;;;8.32;;
81725;SDS011;71135;16.738;-14.648;2023-11-21T02:54:15;19.23;;;6.70;;
81725;SDS011;71135;16.738;-14.648;2023-11-21T02:56:47;17.25;;;6.93;;
81725;SDS011;71135;16.738;-14.648;2023-11-21T02:59:16;29.13;;;8.38;;
81725;SDS011;71135;16.738;-14.648;2023-11-21T03:01:45;20.35;;;7.15;;
81725;SDS011;71135;16.738;-14.648;2023-11-21T03:04:15;33.50;;;10.18;;
81725;SDS011;71135;16.738;-14.648;2023-11-21T03:06:45;22.95;;;7.93;;
81725;SDS011;71135;16.738;-14.648;2023-11-21T03:09:15;27.33;;;8.57;;
81725;SDS011;71135;16.738;-14.648;2023-11-21T03:11:46;23.25;;;7.63;;
81725;SDS011;71135;16.738;-14.648;2023-11-21T03:14:15;21.52;;;7.93;;
81725;SDS011;71135;16.738;-14.648;2023-11-21T03:16:44;21.20;;;8.60;;
81725;SDS011;71135;16.738;-14.648;2023-11-21T03:19:15;20.73;;;7.93;;
81725;SDS011;71135;16.738;-14.648;2023-11-21T03:21:44;26.63;;;8.20;;
81725;SDS011;71135;16.738;-14.648;2023-11-21T03:24:13;25.20;;;8.15;;
81725;SDS011;71135;16.738;-14.648;2023-11-21T03:26:46;22.52;;;7.85;;
81725;SDS011;71135;16.738;-14.648;2023-11-21T03:32:36;31.38;;;9.23;;
81725;SDS011;71135;16.738;-14.648;2023-11-21T03:35:06;23.98;;;7.97;;
81725;SDS011;71135;16.738;-14.648;2023-11-21T03:37:36;31.30;;;8.60;;
81725;SDS011;71135;16.738;-14.648;2023-11-21T03:40:08;29.23;;;9.75;;
81725;SDS011;71135;16.738;-14.648;2023-11-21T03:42:41;22.85;;;7.78;;
81725;SDS011;71135;16.738;-14.648;2023-11-21T03:45:10;27.92;;;8.57;;
81725;SDS011;71135;16.738;-14.648;2023-11-21T03:47:40;31.73;;;10.05;;
81725;SDS011;71135;16.738;-14.648;2023-11-21T03:50:10;26.27;;;8.30;;
81725;SDS011;71135;16.738;-14.648;2023-11-21T03:52:36;24.00;;;8.88;;
81725;SDS011;71135;16.738;-14.648;2023-11-21T03:55:06;24.30;;;8.20;;
81725;SDS011;71135;16.738;-14.648;2023-11-21T03:57:36;26.77;;;8.57;;
81725;SDS011;71135;16.738;-14.648;2023-11-21T04:00:08;22.55;;;8.27;;
81725;SDS011;71135;16.738;-14.648;2023-11-21T04:02:38;29.30;;;10.10;;
81725;SDS011;71135;16.738;-14.648;2023-11-21T04:05:07;25.75;;;8.60;;
81725;SDS011;71135;16.738;-14.648;2023-11-21T04:07:37;27.13;;;8.52;;
81725;SDS011;71135;16.738;-14.648;2023-11-21T04:10:07;20.95;;;8.32;;
81725;SDS011;71135;16.738;-14.648;2023-11-21T04:12:38;24.33;;;7.97;;
81725;SDS011;71135;16.738;-14.648;2023-11-21T04:15:10;25.45;;;8.02;;
81725;SDS011;71135;16.738;-14.648;2023-11-21T04:17:40;24.63;;;7.93;;
81725;SDS011;71135;16.738;-14.648;2023-11-21T04:20:11;23.20;;;7.70;;
81725;SDS011;71135;16.738;-14.648;2023-11-21T04:22:40;31.80;;;9.15;;
81725;SDS011;71135;16.738;-14.648;2023-11-21T04:25:10;21.67;;;7.07;;
81725;SDS011;71135;16.738;-14.648;2023-11-21T04:27:41;22.02;;;6.75;;
81725;SDS011;71135;16.738;-14.648;2023-11-21T04:30:15;17.00;;;6.47;;
81725;SDS011;71135;16.738;-14.648;2023-11-21T04:36:03;11.82;;;5.05;;
81725;SDS011;71135;16.738;-14.648;2023-11-21T04:41:45;12.32;;;4.43;;
81725;SDS011;71135;16.738;-14.648;2023-11-21T04:47:35;9.77;;;3.63;;
81725;SDS011;71135;16.738;-14.648;2023-11-21T04:50:05;8.95;;;3.20;;
81725;SDS011;71135;16.738;-14.648;2023-11-21T04:52:34;10.75;;;3.15;;
81725;SDS011;71135;16.738;-14.648;2023-11-21T04:55:04;12.00;;;2.90;;
81725;SDS011;71135;16.738;-14.648;2023-11-21T04:57:35;7.97;;;2.80;;
81725;SDS011;71135;16.738;-14.648;2023-11-21T05:00:05;9.10;;;2.53;;
81725;SDS011;71135;16.738;-14.648;2023-11-21T05:02:38;12.43;;;2.83;;
81725;SDS011;71135;16.738;-14.648;2023-11-21T05:07:38;9.88;;;2.47;;
81725;SDS011;71135;16.738;-14.648;2023-11-21T05:10:08;7.85;;;2.45;;
81725;SDS011;71135;16.738;-14.648;2023-11-21T05:12:40;8.20;;;2.90;;
81725;SDS011;71135;16.738;-14.648;2023-11-21T05:15:12;9.90;;;2.50;;
81725;SDS011;71135;16.738;-14.648;2023-11-21T05:17:45;14.55;;;3.05;;
81725;SDS011;71135;16.738;-14.648;2023-11-21T05:20:17;9.40;;;2.70;;
81725;SDS011;71135;16.738;-14.648;2023-11-21T05:22:49;16.10;;;3.10;;
81725;SDS011;71135;16.738;-14.648;2023-11-21T05:25:18;8.38;;;2.80;;
81725;SDS011;71135;16.738;-14.648;2023-11-21T05:27:47;9.70;;;3.20;;
81725;SDS011;71135;16.738;-14.648;2023-11-21T05:30:16;9.77;;;2.53;;
81725;SDS011;71135;16.738;-14.648;2023-11-21T05:32:48;12.80;;;3.20;;
81725;SDS011;71135;16.738;-14.648;2023-11-21T05:35:18;9.20;;;3.05;;
81725;SDS011;71135;16.738;-14.648;2023-11-21T05:37:47;10.63;;;2.55;;
81725;SDS011;71135;16.738;-14.648;2023-11-21T05:40:16;11.35;;;2.60;;
81725;SDS011;71135;16.738;-14.648;2023-11-21T05:42:47;14.82;;;2.30;;
81725;SDS011;71135;16.738;-14.648;2023-11-21T05:45:17;10.40;;;2.15;;
81725;SDS011;71135;16.738;-14.648;2023-11-21T05:51:03;10.32;;;2.40;;
81725;SDS011;71135;16.738;-14.648;2023-11-21T05:53:32;9.82;;;2.42;;
81725;SDS011;71135;16.738;-14.648;2023-11-21T05:56:01;10.75;;;2.50;;
81725;SDS011;71135;16.738;-14.648;2023-11-21T05:58:31;9.52;;;2.25;;
81725;SDS011;71135;16.738;-14.648;2023-11-21T06:01:00;10.70;;;2.35;;
81725;SDS011;71135;16.738;-14.648;2023-11-21T06:03:30;9.15;;;2.03;;
81725;SDS011;71135;16.738;-14.648;2023-11-21T06:05:59;11.20;;;2.63;;
81725;SDS011;71135;16.738;-14.648;2023-11-21T06:08:32;9.05;;;2.65;;
81725;SDS011;71135;16.738;-14.648;2023-11-21T06:11:01;8.77;;;2.25;;
81725;SDS011;71135;16.738;-14.648;2023-11-21T06:13:31;9.93;;;2.10;;
81725;SDS011;71135;16.738;-14.648;2023-11-21T06:16:00;7.47;;;2.10;;
81725;SDS011;71135;16.738;-14.648;2023-11-21T06:18:30;11.57;;;2.80;;
81725;SDS011;71135;16.738;-14.648;2023-11-21T06:21:00;7.53;;;2.38;;
81725;SDS011;71135;16.738;-14.648;2023-11-21T06:23:32;10.15;;;2.30;;
81725;SDS011;71135;16.738;-14.648;2023-11-21T06:26:01;6.85;;;2.17;;
81725;SDS011;71135;16.738;-14.648;2023-11-21T06:28:30;6.70;;;2.88;;
81725;SDS011;71135;16.738;-14.648;2023-11-21T06:31:00;10.32;;;2.72;;
81725;SDS011;71135;16.738;-14.648;2023-11-21T06:33:30;12.35;;;2.60;;
81725;SDS011;71135;16.738;-14.648;2023-11-21T06:35:59;7.88;;;2.67;;
81725;SDS011;71135;16.738;-14.648;2023-11-21T06:38:32;13.93;;;3.13;;
81725;SDS011;71135;16.738;-14.648;2023-11-21T06:41:01;8.35;;;2.53;;
81725;SDS011;71135;16.738;-14.648;2023-11-21T06:43:42;9.27;;;3.47;;
81725;SDS011;71135;16.738;-14.648;2023-11-21T06:46:12;11.10;;;3.03;;
81725;SDS011;71135;16.738;-14.648;2023-11-21T06:51:37;10.73;;;3.72;;
81725;SDS011;71135;16.738;-14.648;2023-11-21T06:54:09;13.15;;;4.68;;
81725;SDS011;71135;16.738;-14.648;2023-11-21T06:56:40;12.55;;;4.60;;
81725;SDS011;71135;16.738;-14.648;2023-11-21T06:59:09;12.60;;;5.10;;
81725;SDS011;71135;16.738;-14.648;2023-11-21T07:01:38;10.88;;;4.57;;
81725;SDS011;71135;16.738;-14.648;2023-11-21T07:04:08;11.63;;;4.68;;
81725;SDS011;71135;16.738;-14.648;2023-11-21T07:06:38;15.50;;;4.93;;
81725;SDS011;71135;16.738;-14.648;2023-11-21T07:09:07;12.48;;;4.57;;
81725;SDS011;71135;16.738;-14.648;2023-11-21T07:11:39;12.07;;;4.60;;
81725;SDS011;71135;16.738;-14.648;2023-11-21T07:14:08;12.40;;;5.28;;
81725;SDS011;71135;16.738;-14.648;2023-11-21T07:16:37;15.57;;;4.68;;
81725;SDS011;71135;16.738;-14.648;2023-11-21T07:19:07;12.88;;;6.30;;
81725;SDS011;71135;16.738;-14.648;2023-11-21T07:21:37;11.35;;;5.13;;
81725;SDS011;71135;16.738;-14.648;2023-11-21T07:24:10;11.00;;;5.18;;
81725;SDS011;71135;16.738;-14.648;2023-11-21T07:26:39;14.07;;;5.30;;
81725;SDS011;71135;16.738;-14.648;2023-11-21T07:29:08;12.60;;;5.90;;
81725;SDS011;71135;16.738;-14.648;2023-11-21T07:31:39;10.68;;;4.57;;
81725;SDS011;71135;16.738;-14.648;2023-11-21T07:34:08;10.52;;;4.60;;
81725;SDS011;71135;16.738;-14.648;2023-11-21T07:36:37;10.80;;;4.35;;
81725;SDS011;71135;16.738;-14.648;2023-11-21T07:39:07;9.65;;;3.55;;
81725;SDS011;71135;16.738;-14.648;2023-11-21T07:41:39;9.95;;;3.75;;
81725;SDS011;71135;16.738;-14.648;2023-11-21T07:47:30;10.98;;;3.60;;
81725;SDS011;71135;16.738;-14.648;2023-11-21T07:53:09;8.65;;;4.05;;
81725;SDS011;71135;16.738;-14.648;2023-11-21T07:55:41;9.32;;;4.13;;
81725;SDS011;71135;16.738;-14.648;2023-11-21T07:58:12;8.98;;;3.75;;
81725;SDS011;71135;16.738;-14.648;2023-11-21T08:00:41;9.43;;;3.35;;
81725;SDS011;71135;16.738;-14.648;2023-11-21T08:03:10;10.32;;;4.45;;
81725;SDS011;71135;16.738;-14.648;2023-11-21T08:05:41;4.75;;;2.97;;
81725;SDS011;71135;16.738;-14.648;2023-11-21T08:08:10;6.57;;;3.17;;
81725;SDS011;71135;16.738;-14.648;2023-11-21T08:10:37;7.45;;;3.42;;
81725;SDS011;71135;16.738;-14.648;2023-11-21T08:13:10;6.18;;;3.45;;
81725;SDS011;71135;16.738;-14.648;2023-11-21T08:15:41;5.57;;;2.83;;
81725;SDS011;71135;16.738;-14.648;2023-11-21T08:18:11;6.25;;;2.80;;
81725;SDS011;71135;16.738;-14.648;2023-11-21T08:20:42;7.57;;;2.78;;
81725;SDS011;71135;16.738;-14.648;2023-11-21T08:23:13;7.63;;;2.83;;
81725;SDS011;71135;16.738;-14.648;2023-11-21T08:25:44;6.00;;;2.38;;
81725;SDS011;71135;16.738;-14.648;2023-11-21T08:28:16;6.25;;;2.97;;
81725;SDS011;71135;16.738;-14.648;2023-11-21T08:30:45;5.45;;;2.80;;
81725;SDS011;71135;16.738;-14.648;2023-11-21T08:33:14;5.50;;;2.58;;
81725;SDS011;71135;16.738;-14.648;2023-11-21T08:35:43;5.05;;;2.53;;
81725;SDS011;71135;16.738;-14.648;2023-11-21T08:38:13;5.90;;;2.67;;
81725;SDS011;71135;16.738;-14.648;2023-11-21T08:40:42;7.05;;;3.15;;
81725;SDS011;71135;16.738;-14.648;2023-11-21T08:43:11;7.75;;;2.70;;
81725;SDS011;71135;16.738;-14.648;2023-11-21T08:45:44;6.25;;;2.88;;
81725;SDS011;71135;16.738;-14.648;2023-11-21T08:48:13;6.38;;;3.00;;
81725;SDS011;71135;16.738;-14.648;2023-11-21T08:50:42;11.35;;;4.40;;
81725;SDS011;71135;16.738;-14.648;2023-11-21T08:53:11;8.70;;;4.18;;
81725;SDS011;71135;16.738;-14.648;2023-11-21T08:55:42;9.52;;;4.60;;
81725;SDS011;71135;16.738;-14.648;2023-11-21T08:58:11;10.40;;;4.32;;
81725;SDS011;71135;16.738;-14.648;2023-11-21T09:00:44;8.90;;;4.20;;
81725;SDS011;71135;16.738;-14.648;2023-11-21T09:03:16;12.32;;;5.65;;
81725;SDS011;71135;16.738;-14.648;2023-11-21T09:05:45;9.07;;;4.43;;
81725;SDS011;71135;16.738;-14.648;2023-11-21T09:08:14;11.05;;;4.00;;
81725;SDS011;71135;16.738;-14.648;2023-11-21T09:10:43;11.05;;;4.38;;
81725;SDS011;71135;16.738;-14.648;2023-11-21T09:13:13;11.70;;;4.78;;
81725;SDS011;71135;16.738;-14.648;2023-11-21T09:15:45;12.27;;;5.38;;
81725;SDS011;71135;16.738;-14.648;2023-11-21T09:18:15;11.70;;;5.30;;
81725;SDS011;71135;16.738;-14.648;2023-11-21T09:20:44;10.55;;;4.53;;
81725;SDS011;71135;16.738;-14.648;2023-11-21T09:23:14;14.05;;;5.50;;
81725;SDS011;71135;16.738;-14.648;2023-11-21T09:25:43;14.68;;;6.25;;
81725;SDS011;71135;16.738;-14.648;2023-11-21T09:28:15;11.70;;;5.53;;
81725;SDS011;71135;16.738;-14.648;2023-11-21T09:30:47;14.00;;;5.63;;
81725;SDS011;71135;16.738;-14.648;2023-11-21T09:33:16;14.95;;;7.07;;
81725;SDS011;71135;16.738;-14.648;2023-11-21T09:35:46;17.83;;;6.95;;
81725;SDS011;71135;16.738;-14.648;2023-11-21T09:38:16;16.88;;;6.63;;
81725;SDS011;71135;16.738;-14.648;2023-11-21T09:40:45;16.17;;;6.72;;
81725;SDS011;71135;16.738;-14.648;2023-11-21T09:43:16;19.98;;;7.13;;
81725;SDS011;71135;16.738;-14.648;2023-11-21T09:45:51;15.57;;;6.03;;
81725;SDS011;71135;16.738;-14.648;2023-11-21T09:48:27;19.00;;;7.05;;
81725;SDS011;71135;16.738;-14.648;2023-11-21T09:50:58;18.15;;;6.90;;
81725;SDS011;71135;16.738;-14.648;2023-11-21T09:53:29;22.95;;;7.53;;
81725;SDS011;71135;16.738;-14.648;2023-11-21T09:56:01;20.73;;;6.88;;
81725;SDS011;71135;16.738;-14.648;2023-11-21T09:58:30;17.77;;;7.57;;
81725;SDS011;71135;16.738;-14.648;2023-11-21T10:01:03;19.13;;;7.75;;
81725;SDS011;71135;16.738;-14.648;2023-11-21T10:03:35;19.00;;;7.30;;
81725;SDS011;71135;16.738;-14.648;2023-11-21T10:06:05;18.05;;;5.95;;
81725;SDS011;71135;16.738;-14.648;2023-11-21T10:08:37;15.00;;;7.32;;
81725;SDS011;71135;16.738;-14.648;2023-11-21T10:11:06;16.60;;;6.88;;
81725;SDS011;71135;16.738;-14.648;2023-11-21T10:13:41;15.25;;;6.78;;
81725;SDS011;71135;16.738;-14.648;2023-11-21T10:16:32;12.40;;;5.25;;
81725;SDS011;71135;16.738;-14.648;2023-11-21T10:19:02;13.20;;;5.38;;
81725;SDS011;71135;16.738;-14.648;2023-11-21T10:21:32;12.30;;;5.35;;
81725;SDS011;71135;16.738;-14.648;2023-11-21T10:24:02;11.90;;;4.95;;
81725;SDS011;71135;16.738;-14.648;2023-11-21T10:26:31;10.52;;;4.63;;
81725;SDS011;71135;16.738;-14.648;2023-11-21T10:29:02;10.00;;;4.13;;
81725;SDS011;71135;16.738;-14.648;2023-11-21T10:31:34;10.60;;;4.75;;
81725;SDS011;71135;16.738;-14.648;2023-11-21T10:34:13;9.50;;;4.47;;
81725;SDS011;71135;16.738;-14.648;2023-11-21T10:36:43;8.52;;;4.10;;
81725;SDS011;71135;16.738;-14.648;2023-11-21T10:39:14;10.02;;;4.82;;
81725;SDS011;71135;16.738;-14.648;2023-11-21T10:41:46;15.05;;;5.20;;
81725;SDS011;71135;16.738;-14.648;2023-11-21T10:44:17;13.15;;;5.93;;
81725;SDS011;71135;16.738;-14.648;2023-11-21T10:46:49;14.85;;;5.80;;
81725;SDS011;71135;16.738;-14.648;2023-11-21T10:49:22;14.50;;;5.85;;
81725;SDS011;71135;16.738;-14.648;2023-11-21T10:51:53;15.02;;;6.22;;
81725;SDS011;71135;16.738;-14.648;2023-11-21T10:54:23;15.18;;;6.65;;
81725;SDS011;71135;16.738;-14.648;2023-11-21T10:59:55;12.55;;;5.40;;
81725;SDS011;71135;16.738;-14.648;2023-11-21T11:02:27;11.15;;;5.00;;
81725;SDS011;71135;16.738;-14.648;2023-11-21T11:04:59;16.45;;;5.35;;
81725;SDS011;71135;16.738;-14.648;2023-11-21T11:07:29;11.95;;;4.72;;
81725;SDS011;71135;16.738;-14.648;2023-11-21T11:10:00;12.35;;;5.35;;
81725;SDS011;71135;16.738;-14.648;2023-11-21T11:12:29;13.00;;;5.57;;
81725;SDS011;71135;16.738;-14.648;2023-11-21T11:14:58;8.23;;;3.97;;
81725;SDS011;71135;16.738;-14.648;2023-11-21T11:17:33;8.95;;;3.72;;
81725;SDS011;71135;16.738;-14.648;2023-11-21T11:20:04;7.78;;;3.25;;
81725;SDS011;71135;16.738;-14.648;2023-11-21T11:22:37;7.47;;;2.83;;
81725;SDS011;71135;16.738;-14.648;2023-11-21T11:25:19;8.07;;;3.08;;
81725;SDS011;71135;16.738;-14.648;2023-11-21T11:28:01;8.63;;;2.88;;
81725;SDS011;71135;16.738;-14.648;2023-11-21T11:30:37;9.13;;;3.33;;
81725;SDS011;71135;16.738;-14.648;2023-11-21T11:33:20;8.20;;;3.35;;
81725;SDS011;71135;16.738;-14.648;2023-11-21T11:35:56;9.52;;;3.22;;
81725;SDS011;71135;16.738;-14.648;2023-11-21T11:38:31;11.70;;;4.90;;
81725;SDS011;71135;16.738;-14.648;2023-11-21T11:41:02;15.05;;;5.35;;
81725;SDS011;71135;16.738;-14.648;2023-11-21T11:43:32;12.70;;;5.10;;
81725;SDS011;71135;16.738;-14.648;2023-11-21T11:46:09;10.10;;;4.78;;
81725;SDS011;71135;16.738;-14.648;2023-11-21T11:48:43;13.43;;;5.78;;
81725;SDS011;71135;16.738;-14.648;2023-11-21T11:51:13;11.30;;;4.65;;
81725;SDS011;71135;16.738;-14.648;2023-11-21T11:53:45;10.18;;;4.18;;
81725;SDS011;71135;16.738;-14.648;2023-11-21T11:56:22;10.65;;;4.10;;
81725;SDS011;71135;16.738;-14.648;2023-11-21T11:58:53;9.27;;;4.20;;
81725;SDS011;71135;16.738;-14.648;2023-11-21T12:01:24;10.10;;;4.70;;
81725;SDS011;71135;16.738;-14.648;2023-11-21T12:07:00;10.50;;;4.18;;
81725;SDS011;71135;16.738;-14.648;2023-11-21T12:09:31;9.25;;;4.70;;
81725;SDS011;71135;16.738;-14.648;2023-11-21T12:12:01;9.80;;;4.63;;
81725;SDS011;71135;16.738;-14.648;2023-11-21T12:14:31;13.65;;;4.85;;
81725;SDS011;71135;16.738;-14.648;2023-11-21T12:17:00;13.15;;;5.13;;
81725;SDS011;71135;16.738;-14.648;2023-11-21T12:19:32;11.10;;;5.32;;
81725;SDS011;71135;16.738;-14.648;2023-11-21T12:22:02;11.80;;;5.28;;
81725;SDS011;71135;16.738;-14.648;2023-11-21T12:24:32;13.73;;;5.65;;
81725;SDS011;71135;16.738;-14.648;2023-11-21T12:27:01;12.80;;;6.18;;
81725;SDS011;71135;16.738;-14.648;2023-11-21T12:29:30;12.63;;;6.55;;
81725;SDS011;71135;16.738;-14.648;2023-11-21T12:31:59;15.05;;;6.68;;
81725;SDS011;71135;16.738;-14.648;2023-11-21T12:34:28;12.60;;;5.97;;
81725;SDS011;71135;16.738;-14.648;2023-11-21T12:37:01;14.43;;;6.38;;
81725;SDS011;71135;16.738;-14.648;2023-11-21T12:39:31;12.75;;;6.35;;
81725;SDS011;71135;16.738;-14.648;2023-11-21T12:42:00;12.70;;;6.57;;
81725;SDS011;71135;16.738;-14.648;2023-11-21T12:44:32;12.85;;;6.68;;
81725;SDS011;71135;16.738;-14.648;2023-11-21T12:47:01;13.73;;;6.93;;
81725;SDS011;71135;16.738;-14.648;2023-11-21T12:49:31;12.45;;;7.00;;
81725;SDS011;71135;16.738;-14.648;2023-11-21T12:52:03;12.57;;;7.35;;
81725;SDS011;71135;16.738;-14.648;2023-11-21T12:54:34;10.70;;;6.03;;
81725;SDS011;71135;16.738;-14.648;2023-11-21T12:57:04;12.55;;;6.50;;
81725;SDS011;71135;16.738;-14.648;2023-11-21T12:59:34;11.88;;;5.97;;
81725;SDS011;71135;16.738;-14.648;2023-11-21T13:05:23;12.15;;;5.53;;
81725;SDS011;71135;16.738;-14.648;2023-11-21T13:07:56;11.60;;;5.97;;
81725;SDS011;71135;16.738;-14.648;2023-11-21T13:10:29;12.75;;;6.57;;
81725;SDS011;71135;16.738;-14.648;2023-11-21T13:13:02;12.20;;;6.07;;
81725;SDS011;71135;16.738;-14.648;2023-11-21T13:15:34;12.48;;;5.93;;
81725;SDS011;71135;16.738;-14.648;2023-11-21T13:18:07;12.38;;;6.20;;
81725;SDS011;71135;16.738;-14.648;2023-11-21T13:20:40;12.68;;;6.18;;
81725;SDS011;71135;16.738;-14.648;2023-11-21T13:23:12;12.25;;;6.78;;
81725;SDS011;71135;16.738;-14.648;2023-11-21T13:25:42;13.82;;;6.55;;
81725;SDS011;71135;16.738;-14.648;2023-11-21T13:28:12;13.88;;;7.00;;
81725;SDS011;71135;16.738;-14.648;2023-11-21T13:30:43;9.65;;;6.18;;
81725;SDS011;71135;16.738;-14.648;2023-11-21T13:33:14;10.73;;;6.78;;
81725;SDS011;71135;16.738;-14.648;2023-11-21T13:35:47;11.20;;;6.40;;
81725;SDS011;71135;16.738;-14.648;2023-11-21T13:38:20;12.18;;;6.88;;
81725;SDS011;71135;16.738;-14.648;2023-11-21T13:40:50;12.43;;;7.28;;
81725;SDS011;71135;16.738;-14.648;2023-11-21T13:43:21;11.98;;;6.68;;
81725;SDS011;71135;16.738;-14.648;2023-11-21T13:45:54;11.75;;;7.03;;
81725;SDS011;71135;16.738;-14.648;2023-11-21T13:48:29;11.70;;;6.55;;
81725;SDS011;71135;16.738;-14.648;2023-11-21T13:51:06;11.35;;;6.22;;
81725;SDS011;71135;16.738;-14.648;2023-11-21T13:53:45;10.25;;;6.13;;
81725;SDS011;71135;16.738;-14.648;2023-11-21T13:56:16;11.65;;;7.75;;
81725;SDS011;71135;16.738;-14.648;2023-11-21T13:58:49;10.73;;;6.60;;
81725;SDS011;71135;16.738;-14.648;2023-11-21T14:01:23;11.25;;;7.03;;
81725;SDS011;71135;16.738;-14.648;2023-11-21T14:04:10;8.45;;;5.95;;
81725;SDS011;71135;16.738;-14.648;2023-11-21T14:06:45;10.18;;;6.50;;
81725;SDS011;71135;16.738;-14.648;2023-11-21T14:09:20;9.65;;;6.00;;
81725;SDS011;71135;16.738;-14.648;2023-11-21T14:14:22;11.13;;;7.28;;
81725;SDS011;71135;16.738;-14.648;2023-11-21T14:16:53;9.63;;;6.47;;
81725;SDS011;71135;16.738;-14.648;2023-11-21T14:19:24;9.65;;;6.10;;
81725;SDS011;71135;16.738;-14.648;2023-11-21T14:21:57;8.45;;;6.22;;
81725;SDS011;71135;16.738;-14.648;2023-11-21T14:24:29;10.68;;;7.18;;
81725;SDS011;71135;16.738;-14.648;2023-11-21T14:26:58;10.55;;;6.43;;
81725;SDS011;71135;16.738;-14.648;2023-11-21T14:29:29;8.95;;;6.82;;
81725;SDS011;71135;16.738;-14.648;2023-11-21T14:32:04;10.88;;;7.80;;
81725;SDS011;71135;16.738;-14.648;2023-11-21T14:34:34;10.05;;;7.95;;
81725;SDS011;71135;16.738;-14.648;2023-11-21T14:37:04;10.77;;;8.38;;
81725;SDS011;71135;16.738;-14.648;2023-11-21T14:39:35;19.33;;;12.00;;
81725;SDS011;71135;16.738;-14.648;2023-11-21T14:42:10;10.45;;;7.05;;
81725;SDS011;71135;16.738;-14.648;2023-11-21T14:44:40;10.88;;;7.22;;
81725;SDS011;71135;16.738;-14.648;2023-11-21T14:47:09;12.45;;;9.15;;
81725;SDS011;71135;16.738;-14.648;2023-11-21T14:49:43;13.73;;;9.73;;
81725;SDS011;71135;16.738;-14.648;2023-11-21T14:52:25;14.70;;;8.90;;
81725;SDS011;71135;16.738;-14.648;2023-11-21T14:55:02;11.38;;;6.53;;
81725;SDS011;71135;16.738;-14.648;2023-11-21T14:57:44;10.20;;;6.88;;
81725;SDS011;71135;16.738;-14.648;2023-11-21T15:00:16;12.32;;;8.40;;
81725;SDS011;71135;16.738;-14.648;2023-11-21T15:03:04;11.93;;;8.13;;
81725;SDS011;71135;16.738;-14.648;2023-11-21T15:05:35;12.02;;;7.15;;
81725;SDS011;71135;16.738;-14.648;2023-11-21T15:08:02;11.35;;;7.40;;
81725;SDS011;71135;16.738;-14.648;2023-11-21T15:10:48;9.80;;;5.32;;
81725;SDS011;71135;16.738;-14.648;2023-11-21T15:13:19;9.73;;;5.63;;
81725;SDS011;71135;16.738;-14.648;2023-11-21T15:15:49;13.10;;;6.78;;
81725;SDS011;71135;16.738;-14.648;2023-11-21T15:18:20;11.82;;;6.43;;
81725;SDS011;71135;16.738;-14.648;2023-11-21T15:20:50;20.25;;;12.35;;
81725;SDS011;71135;16.738;-14.648;2023-11-21T15:23:20;13.50;;;8.35;;
81725;SDS011;71135;16.738;-14.648;2023-11-21T15:25:52;14.38;;;8.55;;
81725;SDS011;71135;16.738;-14.648;2023-11-21T15:28:21;19.30;;;9.68;;
81725;SDS011;71135;16.738;-14.648;2023-11-21T15:30:57;34.67;;;17.60;;